createdAt,value
2019-01-04T00:02:28.133Z,4.87
2019-01-04T00:07:34.471Z,4.90
2019-01-04T00:12:40.770Z,4.90
2019-01-04T00:17:46.925Z,5.87
2019-01-04T00:22:53.503Z,5.73
2019-01-04T00:27:59.905Z,10.77
2019-01-04T00:33:06.169Z,17.30
2019-01-04T00:38:12.392Z,5.70
2019-01-04T00:43:18.785Z,4.17
2019-01-04T00:48:24.997Z,3.50
2019-01-04T00:53:31.091Z,3.13
2019-01-04T00:59:07.631Z,2.57
2019-01-04T01:04:51.226Z,2.73
2019-01-04T01:10:33.792Z,2.70
2019-01-04T01:16:24.061Z,3.17
2019-01-04T01:22:14.829Z,2.30
2019-01-04T01:28:04.122Z,2.30
2019-01-04T01:33:30.543Z,2.30
2019-01-04T01:39:12.875Z,2.50
2019-01-04T01:44:59.364Z,2.70
2019-01-04T01:50:20.299Z,2.33
2019-01-04T01:55:26.430Z,2.93
2019-01-04T02:00:32.632Z,2.50
2019-01-04T02:05:38.852Z,3.07
2019-01-04T02:10:44.884Z,2.80
2019-01-04T02:15:51.070Z,2.67
2019-01-04T02:20:57.167Z,2.27
2019-01-04T02:26:03.709Z,2.40
2019-01-04T02:31:09.856Z,2.10
2019-01-04T02:36:15.991Z,2.50
2019-01-04T02:41:22.007Z,2.43
2019-01-04T02:46:28.146Z,2.60
2019-01-04T02:51:34.379Z,2.60
2019-01-04T02:56:40.783Z,3.27
2019-01-04T03:01:47.006Z,3.30
2019-01-04T03:06:53.551Z,4.57
2019-01-04T03:11:59.696Z,3.97
2019-01-04T03:17:05.922Z,4.40
2019-01-04T03:22:12.021Z,4.50
2019-01-04T03:27:18.182Z,4.20
2019-01-04T03:32:24.483Z,4.10
2019-01-04T03:37:31.574Z,3.93
2019-01-04T03:42:37.616Z,4.60
2019-01-04T03:47:44.205Z,4.80
2019-01-04T03:52:50.368Z,4.20
2019-01-04T03:57:56.517Z,4.43
2019-01-04T04:03:02.633Z,4.13
2019-01-04T04:08:09.112Z,4.73
2019-01-04T04:13:15.181Z,4.30
2019-01-04T04:18:21.531Z,4.50
2019-01-04T04:23:27.727Z,4.10
2019-01-04T04:28:33.844Z,4.20
2019-01-04T04:33:39.908Z,4.37
2019-01-04T04:38:45.983Z,3.47
2019-01-04T04:43:53.149Z,3.30
2019-01-04T04:48:59.191Z,3.30
2019-01-04T04:54:05.535Z,3.20
2019-01-04T04:59:11.585Z,3.17
2019-01-04T05:04:17.993Z,2.63
2019-01-04T05:09:24.115Z,2.40
2019-01-04T05:14:30.288Z,1.73
2019-01-04T05:19:36.363Z,2.20
2019-01-04T05:24:42.485Z,2.23
2019-01-04T05:29:48.622Z,2.03
2019-01-04T05:34:55.150Z,2.40
2019-01-04T05:40:01.106Z,2.00
2019-01-04T05:45:08.553Z,2.70
2019-01-04T05:50:15.014Z,2.17
2019-01-04T05:55:21.286Z,2.17
2019-01-04T06:00:27.470Z,2.63
2019-01-04T06:05:33.509Z,2.50
2019-01-04T06:10:39.541Z,2.90
2019-01-04T06:15:45.696Z,2.30
2019-01-04T06:20:52.303Z,2.20
2019-01-04T06:25:58.464Z,2.73
2019-01-04T06:31:04.597Z,2.30
2019-01-04T06:36:10.626Z,2.43
2019-01-04T06:41:16.903Z,3.20
2019-01-04T06:46:22.968Z,4.30
2019-01-04T06:51:30.120Z,5.90
2019-01-04T06:56:36.253Z,7.40
2019-01-04T07:01:42.443Z,8.87
2019-01-04T07:06:48.582Z,10.60
2019-01-04T07:11:54.814Z,10.87
2019-01-04T07:17:02.967Z,12.53
2019-01-04T07:22:08.986Z,11.53
2019-01-04T07:27:15.473Z,11.27
2019-01-04T07:32:21.573Z,11.63
2019-01-04T07:37:27.694Z,12.87
2019-01-04T07:42:33.809Z,13.47
2019-01-04T07:47:40.000Z,13.00
2019-01-04T07:52:46.095Z,14.10
2019-01-04T07:57:52.369Z,13.30
2019-01-04T08:03:03.107Z,14.53
2019-01-04T08:08:09.208Z,11.93
2019-01-04T08:13:15.561Z,13.20
2019-01-04T08:18:21.734Z,14.00
2019-01-04T08:23:28.005Z,15.53
2019-01-04T08:28:34.049Z,16.97
2019-01-04T08:33:40.144Z,16.53
2019-01-04T08:38:46.309Z,19.80
2019-01-04T08:43:52.498Z,19.17
2019-01-04T08:48:58.552Z,17.87
2019-01-04T08:54:15.139Z,17.40
2019-01-04T08:59:21.267Z,15.27
2019-01-04T09:04:27.387Z,15.13
2019-01-04T09:09:33.541Z,16.10
2019-01-04T09:14:39.694Z,15.73
2019-01-04T09:19:45.869Z,18.23
2019-01-04T09:24:52.631Z,17.33
2019-01-04T09:29:58.739Z,15.90
2019-01-04T09:35:04.906Z,17.63
2019-01-04T09:40:12.631Z,18.67
2019-01-04T09:45:19.132Z,20.50
2019-01-04T09:50:25.542Z,20.70
2019-01-04T09:55:31.751Z,21.07
2019-01-04T10:00:38.112Z,19.97
2019-01-04T10:05:44.298Z,20.00
2019-01-04T10:10:50.408Z,19.40
2019-01-04T10:15:56.510Z,18.73
2019-01-04T10:21:03.157Z,18.33
2019-01-04T10:26:10.771Z,16.63
2019-01-04T10:31:17.098Z,18.40
2019-01-04T10:36:23.165Z,16.50
2019-01-04T10:41:29.681Z,15.13
2019-01-04T10:46:36.035Z,15.53
2019-01-04T10:51:42.423Z,15.63
2019-01-04T10:56:48.594Z,15.77
2019-01-04T11:01:54.754Z,16.63
2019-01-04T11:07:01.266Z,16.10
2019-01-04T11:12:07.456Z,17.40
2019-01-04T11:17:13.585Z,16.30
2019-01-04T11:22:55.478Z,15.40
2019-01-04T11:28:18.385Z,17.03
2019-01-04T11:33:47.624Z,17.83
2019-01-04T11:39:22.278Z,16.70
2019-01-04T11:45:09.814Z,16.70
2019-01-04T11:50:53.205Z,18.83
2019-01-04T11:55:59.293Z,20.47
2019-01-04T12:01:05.760Z,20.60
2019-01-04T12:06:12.475Z,21.23
2019-01-04T12:11:18.610Z,21.63
2019-01-04T12:16:24.784Z,20.60
2019-01-04T12:21:30.955Z,22.47
2019-01-04T12:26:37.118Z,20.80
2019-01-04T12:31:43.614Z,21.07
2019-01-04T12:36:49.802Z,21.93
2019-01-04T12:41:56.930Z,22.07
2019-01-04T12:47:03.110Z,18.23
2019-01-04T12:52:12.035Z,19.07
2019-01-04T12:57:18.177Z,15.57
2019-01-04T13:02:24.741Z,16.03
2019-01-04T13:07:31.037Z,15.97
2019-01-04T13:12:37.250Z,15.57
2019-01-04T13:17:43.334Z,18.47
2019-01-04T13:22:49.452Z,20.70
2019-01-04T13:27:59.036Z,20.97
2019-01-04T13:33:05.685Z,20.40
2019-01-04T13:38:11.894Z,19.57
2019-01-04T13:43:18.099Z,17.27
2019-01-04T13:48:24.057Z,17.27
2019-01-04T13:53:30.228Z,16.93
2019-01-04T13:58:36.691Z,15.53
2019-01-04T14:03:42.945Z,15.37
2019-01-04T14:08:50.379Z,15.60
2019-01-04T14:13:56.583Z,14.73
2019-01-04T14:19:02.789Z,13.80
2019-01-04T14:24:09.065Z,13.97
2019-01-04T14:29:15.308Z,14.10
2019-01-04T14:34:21.465Z,13.93
2019-01-04T14:39:27.762Z,16.70
2019-01-04T14:44:34.000Z,17.40
2019-01-04T14:49:40.205Z,19.30
2019-01-04T14:54:46.394Z,20.00
2019-01-04T14:59:52.715Z,19.50
2019-01-04T15:04:58.810Z,19.87
2019-01-04T15:10:05.960Z,19.43
2019-01-04T15:15:12.312Z,19.67
2019-01-04T15:20:18.432Z,18.97
2019-01-04T15:25:24.580Z,17.70
2019-01-04T15:30:31.156Z,17.67
2019-01-04T15:35:37.257Z,17.60
2019-01-04T15:40:43.638Z,18.00
2019-01-04T15:45:49.760Z,17.93
2019-01-04T15:50:55.986Z,18.97
2019-01-04T15:56:02.154Z,15.07
2019-01-04T16:01:08.618Z,12.90
2019-01-04T16:06:14.796Z,9.40
2019-01-04T16:11:20.889Z,7.73
2019-01-04T16:16:26.981Z,7.00
2019-01-04T16:21:33.216Z,6.63
2019-01-04T16:26:39.323Z,6.17
2019-01-04T16:31:45.541Z,5.70
2019-01-04T16:36:51.836Z,4.80
2019-01-04T16:41:58.048Z,5.40
2019-01-04T16:47:04.207Z,4.43
2019-01-04T16:52:11.991Z,5.60
2019-01-04T16:57:21.002Z,4.67
2019-01-04T17:02:27.334Z,4.10
2019-01-04T17:07:33.398Z,4.40
2019-01-04T17:12:39.526Z,5.13
2019-01-04T17:17:45.895Z,4.10
2019-01-04T17:22:52.126Z,3.90
2019-01-04T17:27:59.990Z,3.43
2019-01-04T17:33:06.270Z,3.90
2019-01-04T17:38:12.514Z,4.17
2019-01-04T17:43:18.634Z,4.10
2019-01-04T17:48:24.722Z,3.70
2019-01-04T17:53:30.756Z,4.40
2019-01-04T17:58:37.143Z,4.20
2019-01-04T18:03:43.347Z,4.90
2019-01-04T18:08:51.497Z,4.47
2019-01-04T18:13:57.616Z,4.67
2019-01-04T18:19:03.701Z,4.67
2019-01-04T18:24:09.995Z,4.27
2019-01-04T18:29:16.128Z,4.67
2019-01-04T18:34:22.199Z,4.17
2019-01-04T18:39:28.357Z,4.60
2019-01-04T18:44:34.566Z,4.43
2019-01-04T18:49:40.681Z,4.67
2019-01-04T18:54:46.822Z,4.97
2019-01-04T18:59:53.289Z,5.40
2019-01-04T19:04:59.343Z,5.50
2019-01-04T19:10:06.835Z,4.90
2019-01-04T19:15:13.313Z,5.20
2019-01-04T19:20:19.560Z,5.40
2019-01-04T19:25:25.684Z,5.47
2019-01-04T19:30:31.776Z,4.97
2019-01-04T19:35:37.866Z,5.20
2019-01-04T19:40:43.919Z,5.73
2019-01-04T19:45:52.005Z,5.63
2019-01-04T19:50:57.897Z,5.97
2019-01-04T19:56:04.302Z,5.70
2019-01-04T20:01:10.574Z,6.27
2019-01-04T20:07:32.606Z,6.13
2019-01-04T20:14:00.909Z,6.10
2019-01-04T20:19:29.112Z,6.83
2019-01-04T20:25:03.214Z,6.07
2019-01-04T20:30:21.696Z,6.77
2019-01-04T20:35:46.802Z,7.10
2019-01-04T20:41:30.197Z,5.80
2019-01-04T20:46:56.989Z,5.93
2019-01-04T20:52:25.299Z,5.77
2019-01-04T20:57:42.911Z,4.33
2019-01-04T21:03:14.493Z,4.00
2019-01-04T21:08:48.692Z,3.87
2019-01-04T21:14:12.384Z,3.23
2019-01-04T21:19:37.594Z,3.00
2019-01-04T21:25:01.457Z,2.50
2019-01-04T21:30:30.060Z,3.67
2019-01-04T21:35:52.053Z,2.30
2019-01-04T21:41:35.347Z,2.77
2019-01-04T21:46:59.447Z,2.20
2019-01-04T21:52:34.630Z,2.70
2019-01-04T21:58:06.014Z,2.20
2019-01-04T22:03:32.777Z,2.30
2019-01-04T22:08:57.943Z,2.50
2019-01-04T22:14:23.127Z,2.50
2019-01-04T22:19:51.393Z,3.03
2019-01-04T22:25:23.162Z,2.83
2019-01-04T22:30:48.384Z,2.77
2019-01-04T22:36:12.438Z,2.50
2019-01-04T22:41:37.030Z,2.90
2019-01-04T22:47:11.603Z,3.10
2019-01-04T22:52:52.116Z,3.53
2019-01-04T22:58:10.819Z,3.17
2019-01-04T23:03:34.820Z,3.20
2019-01-04T23:08:54.928Z,2.80
2019-01-04T23:14:19.103Z,2.10
2019-01-04T23:19:43.248Z,2.30
2019-01-04T23:25:07.258Z,2.90
2019-01-04T23:30:35.251Z,2.77
2019-01-04T23:36:10.414Z,2.50
2019-01-04T23:41:35.314Z,2.53
2019-01-04T23:46:59.399Z,2.23
2019-01-04T23:52:23.370Z,2.30
2019-01-04T23:57:51.291Z,2.30
